createdAt,value
2018-07-26T00:00:20.531Z,23.44
2018-07-26T00:01:27.798Z,23.44
2018-07-26T00:02:32.615Z,23.41
2018-07-26T00:03:38.014Z,23.41
2018-07-26T00:04:42.783Z,23.46
2018-07-26T00:05:47.648Z,23.49
2018-07-26T00:06:52.778Z,23.52
2018-07-26T00:07:57.651Z,23.55
2018-07-26T00:09:02.480Z,23.61
2018-07-26T00:10:08.684Z,23.62
2018-07-26T00:11:14.759Z,23.65
2018-07-26T00:12:19.584Z,23.69
2018-07-26T00:13:28.259Z,23.73
2018-07-26T00:14:33.089Z,23.75
2018-07-26T00:15:38.554Z,23.79
2018-07-26T00:16:44.139Z,23.80
2018-07-26T00:17:50.678Z,23.71
2018-07-26T00:18:55.777Z,23.61
2018-07-26T00:20:00.589Z,23.49
2018-07-26T00:21:05.407Z,23.45
2018-07-26T00:22:11.047Z,23.40
2018-07-26T00:23:15.869Z,23.27
2018-07-26T00:24:20.681Z,23.25
2018-07-26T00:25:26.762Z,23.30
2018-07-26T00:26:32.415Z,23.27
2018-07-26T00:27:37.286Z,23.29
2018-07-26T00:28:42.203Z,23.22
2018-07-26T00:29:47.663Z,22.98
2018-07-26T00:30:52.475Z,22.77
2018-07-26T00:31:57.559Z,22.78
2018-07-26T00:33:02.479Z,22.91
2018-07-26T00:34:07.393Z,23.03
2018-07-26T00:35:12.228Z,23.06
2018-07-26T00:36:17.038Z,23.01
2018-07-26T00:37:21.857Z,22.94
2018-07-26T00:38:30.338Z,22.96
2018-07-26T00:39:36.739Z,22.97
2018-07-26T00:40:41.432Z,22.94
2018-07-26T00:41:46.116Z,22.91
2018-07-26T00:42:52.298Z,22.67
2018-07-26T00:43:58.282Z,22.74
2018-07-26T00:45:03.309Z,22.84
2018-07-26T00:46:08.032Z,22.80
2018-07-26T00:47:12.686Z,22.73
2018-07-26T00:48:17.372Z,22.81
2018-07-26T00:49:22.971Z,22.91
2018-07-26T00:50:27.640Z,22.93
2018-07-26T00:51:32.688Z,22.94
2018-07-26T00:52:37.373Z,22.97
2018-07-26T00:53:42.062Z,22.98
2018-07-26T00:54:47.288Z,23.02
2018-07-26T00:55:52.832Z,23.08
2018-07-26T00:56:57.805Z,23.08
2018-07-26T00:58:02.539Z,23.05
2018-07-26T00:59:07.255Z,23.02
2018-07-26T01:00:11.950Z,22.99
2018-07-26T01:01:16.690Z,22.94
2018-07-26T01:02:22.071Z,23.00
2018-07-26T01:03:28.142Z,23.02
2018-07-26T01:04:32.952Z,23.06
2018-07-26T01:05:37.765Z,23.09
2018-07-26T01:06:42.642Z,23.12
2018-07-26T01:07:48.397Z,23.04
2018-07-26T01:08:53.207Z,22.98
2018-07-26T01:09:58.282Z,22.88
2018-07-26T01:11:03.092Z,22.86
2018-07-26T01:12:07.908Z,22.84
2018-07-26T01:13:14.867Z,22.82
2018-07-26T01:14:21.349Z,22.78
2018-07-26T01:15:27.288Z,22.77
2018-07-26T01:16:32.125Z,22.66
2018-07-26T01:17:36.942Z,22.55
2018-07-26T01:18:41.780Z,22.45
2018-07-26T01:19:46.611Z,22.46
2018-07-26T01:20:51.451Z,22.52
2018-07-26T01:21:57.412Z,22.54
2018-07-26T01:23:02.235Z,22.56
2018-07-26T01:24:07.122Z,22.57
2018-07-26T01:25:11.959Z,22.57
2018-07-26T01:26:16.799Z,22.58
2018-07-26T01:27:21.626Z,22.60
2018-07-26T01:28:26.942Z,22.59
2018-07-26T01:29:31.772Z,22.61
2018-07-26T01:30:36.892Z,22.61
2018-07-26T01:31:41.722Z,22.65
2018-07-26T01:32:46.545Z,22.65
2018-07-26T01:33:51.899Z,22.61
2018-07-26T01:34:57.011Z,22.64
2018-07-26T01:36:01.821Z,22.65
2018-07-26T01:37:06.848Z,22.67
2018-07-26T01:38:12.234Z,22.71
2018-07-26T01:39:17.119Z,22.66
2018-07-26T01:40:22.931Z,22.63
2018-07-26T01:41:28.028Z,22.64
2018-07-26T01:42:37.004Z,22.61
2018-07-26T01:43:47.803Z,22.61
2018-07-26T01:44:52.588Z,22.53
2018-07-26T01:45:57.442Z,22.50
2018-07-26T01:47:03.711Z,22.46
2018-07-26T01:48:09.796Z,22.39
2018-07-26T01:49:15.351Z,22.38
2018-07-26T01:50:20.191Z,22.31
2018-07-26T01:51:25.003Z,22.28
2018-07-26T01:52:29.865Z,22.33
2018-07-26T01:53:36.504Z,22.38
2018-07-26T01:54:42.629Z,22.37
2018-07-26T01:55:48.426Z,22.40
2018-07-26T01:56:53.299Z,22.43
2018-07-26T01:58:00.057Z,22.47
2018-07-26T01:59:05.000Z,22.49
2018-07-26T02:00:10.499Z,22.50
2018-07-26T02:01:15.664Z,22.53
2018-07-26T02:02:20.484Z,22.51
2018-07-26T02:03:25.331Z,22.52
2018-07-26T02:04:30.176Z,22.52
2018-07-26T02:05:35.830Z,22.52
2018-07-26T02:06:41.589Z,22.47
2018-07-26T02:07:46.736Z,22.34
2018-07-26T02:08:52.465Z,22.28
2018-07-26T02:09:57.311Z,22.21
2018-07-26T02:11:02.193Z,22.20
2018-07-26T02:12:07.054Z,22.17
2018-07-26T02:13:11.904Z,22.00
2018-07-26T02:14:22.039Z,21.99
2018-07-26T02:15:26.872Z,22.02
2018-07-26T02:16:31.653Z,22.02
2018-07-26T02:17:36.393Z,22.05
2018-07-26T02:18:41.309Z,22.06
2018-07-26T02:19:46.162Z,22.11
2018-07-26T02:20:53.929Z,22.13
2018-07-26T02:21:59.288Z,22.12
2018-07-26T02:23:04.109Z,22.13
2018-07-26T02:24:09.002Z,22.15
2018-07-26T02:25:14.748Z,22.12
2018-07-26T02:26:20.330Z,22.11
2018-07-26T02:27:25.359Z,22.08
2018-07-26T02:28:31.708Z,21.94
2018-07-26T02:29:39.112Z,21.73
2018-07-26T02:30:44.752Z,21.62
2018-07-26T02:31:49.888Z,21.51
2018-07-26T02:32:55.662Z,21.47
2018-07-26T02:34:00.526Z,21.48
2018-07-26T02:35:06.346Z,21.54
2018-07-26T02:36:11.969Z,21.54
2018-07-26T02:37:17.630Z,21.52
2018-07-26T02:38:23.766Z,21.56
2018-07-26T02:39:28.743Z,21.61
2018-07-26T02:40:33.584Z,21.63
2018-07-26T02:41:42.861Z,21.64
2018-07-26T02:42:48.361Z,21.64
2018-07-26T02:43:53.207Z,21.62
2018-07-26T02:44:58.319Z,21.59
2018-07-26T02:46:05.391Z,21.60
2018-07-26T02:47:10.239Z,21.63
2018-07-26T02:48:15.085Z,21.67
2018-07-26T02:49:19.989Z,21.68
2018-07-26T02:50:24.827Z,21.64
2018-07-26T02:51:31.943Z,21.63
2018-07-26T02:52:37.027Z,21.53
2018-07-26T02:53:42.539Z,21.48
2018-07-26T02:54:47.404Z,21.41
2018-07-26T02:55:52.274Z,21.38
2018-07-26T02:56:57.509Z,21.29
2018-07-26T02:58:02.704Z,21.22
2018-07-26T02:59:07.533Z,21.20
2018-07-26T03:00:12.770Z,21.24
2018-07-26T03:01:17.899Z,21.27
2018-07-26T03:02:24.176Z,21.30
2018-07-26T03:03:30.366Z,21.31
2018-07-26T03:04:35.541Z,21.27
2018-07-26T03:05:40.336Z,21.24
2018-07-26T03:06:45.180Z,21.25
2018-07-26T03:07:50.353Z,21.23
2018-07-26T03:08:55.158Z,21.17
2018-07-26T03:09:59.991Z,21.08
2018-07-26T03:11:05.288Z,21.07
2018-07-26T03:12:10.141Z,21.07
2018-07-26T03:13:14.947Z,21.08
2018-07-26T03:14:20.641Z,21.10
2018-07-26T03:15:25.473Z,21.10
2018-07-26T03:16:30.214Z,21.10
2018-07-26T03:17:36.079Z,21.13
2018-07-26T03:18:40.770Z,21.15
2018-07-26T03:19:46.071Z,21.17
2018-07-26T03:20:50.813Z,21.18
2018-07-26T03:21:55.624Z,21.09
2018-07-26T03:23:00.380Z,21.05
2018-07-26T03:24:05.801Z,21.05
2018-07-26T03:25:10.500Z,20.98
2018-07-26T03:26:16.855Z,20.90
2018-07-26T03:27:21.569Z,20.87
2018-07-26T03:28:26.320Z,20.67
2018-07-26T03:29:31.337Z,20.56
2018-07-26T03:30:38.234Z,20.60
2018-07-26T03:31:43.324Z,20.56
2018-07-26T03:32:48.701Z,20.54
2018-07-26T03:33:56.033Z,20.58
2018-07-26T03:35:00.769Z,20.60
2018-07-26T03:50:16.201Z,20.87
2018-07-26T03:51:20.974Z,20.89
2018-07-26T03:52:25.728Z,20.88
2018-07-26T03:53:30.432Z,20.79
2018-07-26T03:54:35.125Z,20.75
2018-07-26T03:55:40.162Z,20.76
2018-07-26T03:56:45.862Z,20.73
2018-07-26T03:57:50.594Z,20.69
2018-07-26T03:58:55.321Z,20.73
2018-07-26T04:00:00.075Z,20.70
2018-07-26T04:01:04.808Z,20.70
2018-07-26T04:02:10.765Z,20.63
2018-07-26T04:03:15.557Z,20.54
2018-07-26T04:04:20.320Z,20.59
2018-07-26T04:05:25.113Z,20.61
2018-07-26T04:06:29.849Z,20.54
2018-07-26T04:07:35.622Z,20.46
2018-07-26T04:08:41.545Z,20.45
2018-07-26T04:09:46.317Z,20.47
2018-07-26T04:10:52.021Z,20.51
2018-07-26T04:11:56.754Z,20.50
2018-07-26T04:13:03.861Z,20.51
2018-07-26T04:14:08.948Z,20.52
2018-07-26T04:15:13.647Z,20.59
2018-07-26T04:16:18.968Z,20.64
2018-07-26T04:17:23.657Z,20.70
2018-07-26T04:18:29.085Z,20.73
2018-07-26T04:19:34.660Z,20.76
2018-07-26T04:20:40.366Z,20.80
2018-07-26T04:21:45.126Z,20.83
2018-07-26T04:22:49.942Z,20.84
2018-07-26T04:23:54.779Z,20.72
2018-07-26T04:24:59.631Z,20.53
2018-07-26T04:26:04.602Z,20.47
2018-07-26T04:27:10.656Z,20.40
2018-07-26T04:28:15.554Z,20.27
2018-07-26T04:29:21.328Z,20.26
2018-07-26T04:30:26.276Z,20.23
2018-07-26T04:31:31.188Z,19.89
2018-07-26T04:32:36.057Z,19.81
2018-07-26T04:33:41.237Z,19.98
2018-07-26T04:34:46.127Z,20.12
2018-07-26T04:35:51.237Z,20.29
2018-07-26T04:36:56.110Z,20.36
2018-07-26T04:38:00.964Z,20.40
2018-07-26T04:39:07.682Z,20.46
2018-07-26T04:40:12.847Z,20.53
2018-07-26T04:41:19.067Z,20.56
2018-07-26T04:42:23.973Z,20.54
2018-07-26T04:43:30.386Z,20.52
2018-07-26T04:44:35.224Z,20.51
2018-07-26T04:45:43.148Z,20.61
2018-07-26T04:46:48.463Z,20.69
2018-07-26T04:47:53.335Z,20.73
2018-07-26T04:49:02.809Z,20.77
2018-07-26T04:50:07.765Z,20.76
2018-07-26T04:51:12.610Z,20.76
2018-07-26T04:52:20.238Z,20.77
2018-07-26T04:53:25.404Z,20.79
2018-07-26T04:54:31.784Z,20.84
2018-07-26T04:55:36.661Z,20.93
2018-07-26T04:56:41.495Z,20.97
2018-07-26T04:57:48.481Z,20.97
2018-07-26T04:58:53.315Z,20.92
2018-07-26T04:59:58.690Z,20.87
2018-07-26T05:01:04.373Z,20.87
2018-07-26T05:02:09.228Z,20.87
2018-07-26T05:03:14.056Z,20.89
2018-07-26T05:04:21.455Z,20.92
2018-07-26T05:05:26.337Z,20.94
2018-07-26T05:06:31.555Z,20.95
2018-07-26T05:07:36.372Z,20.95
2018-07-26T05:08:41.191Z,20.99
2018-07-26T05:09:46.088Z,20.99
2018-07-26T05:10:51.229Z,20.96
2018-07-26T05:11:56.071Z,21.00
2018-07-26T05:13:02.480Z,21.01
2018-07-26T05:14:07.305Z,20.99
2018-07-26T05:15:12.164Z,20.99
2018-07-26T05:16:16.943Z,21.01
2018-07-26T05:17:21.993Z,21.07
2018-07-26T05:18:27.613Z,21.07
2018-07-26T05:19:32.699Z,21.10
2018-07-26T05:20:37.976Z,21.12
2018-07-26T05:21:42.671Z,21.14
2018-07-26T05:22:48.240Z,21.20
2018-07-26T05:23:53.097Z,21.27
2018-07-26T05:24:58.325Z,21.34
2018-07-26T05:26:03.248Z,21.43
2018-07-26T05:27:09.809Z,21.50
2018-07-26T05:28:14.666Z,21.55
2018-07-26T05:29:19.537Z,21.45
2018-07-26T05:30:24.322Z,21.45
2018-07-26T05:31:29.161Z,21.47
2018-07-26T05:32:34.916Z,21.49
2018-07-26T05:33:40.783Z,21.51
2018-07-26T05:34:47.060Z,21.49
2018-07-26T05:35:51.917Z,21.39
2018-07-26T05:36:57.075Z,21.34
2018-07-26T05:38:02.972Z,21.28
2018-07-26T05:39:09.558Z,21.20
2018-07-26T05:40:15.417Z,21.18
2018-07-26T05:41:20.279Z,21.14
2018-07-26T05:42:25.133Z,21.12
2018-07-26T05:43:30.364Z,21.15
2018-07-26T05:44:35.203Z,21.19
2018-07-26T05:45:43.914Z,21.22
2018-07-26T05:46:49.720Z,21.26
2018-07-26T05:47:54.652Z,21.31
2018-07-26T05:48:59.488Z,21.38
2018-07-26T05:50:05.782Z,21.42
2018-07-26T05:51:10.618Z,21.42
2018-07-26T05:52:15.472Z,21.45
2018-07-26T05:53:20.884Z,21.55
2018-07-26T05:54:26.436Z,21.60
2018-07-26T05:55:32.713Z,21.69
2018-07-26T05:56:37.863Z,21.79
2018-07-26T05:57:42.681Z,21.82
2018-07-26T05:58:48.464Z,21.81
2018-07-26T05:59:53.358Z,21.83
2018-07-26T06:00:58.291Z,21.90
2018-07-26T06:02:03.506Z,21.98
2018-07-26T06:03:09.645Z,22.07
2018-07-26T06:04:16.524Z,22.14
2018-07-26T06:05:21.518Z,22.22
2018-07-26T06:06:26.493Z,22.28
2018-07-26T06:07:31.740Z,22.27
2018-07-26T06:08:37.411Z,22.27
2018-07-26T06:09:43.524Z,22.24
2018-07-26T06:10:48.811Z,22.23
2018-07-26T06:11:53.675Z,22.24
2018-07-26T06:13:02.723Z,22.20
2018-07-26T06:14:09.394Z,22.29
2018-07-26T06:15:14.331Z,22.38
2018-07-26T06:16:19.711Z,22.43
2018-07-26T06:17:24.495Z,22.44
2018-07-26T06:18:29.207Z,22.50
2018-07-26T06:19:33.946Z,22.54
2018-07-26T06:20:38.902Z,22.56
2018-07-26T06:21:43.697Z,22.57
2018-07-26T06:22:48.881Z,22.60
2018-07-26T06:23:53.872Z,22.71
2018-07-26T06:24:59.396Z,22.81
2018-07-26T06:26:04.774Z,22.90
2018-07-26T06:27:10.591Z,22.99
2018-07-26T06:28:16.364Z,23.03
2018-07-26T06:29:23.563Z,23.08
2018-07-26T06:30:28.691Z,23.14
2018-07-26T06:31:33.408Z,23.21
2018-07-26T06:32:38.132Z,23.27
2018-07-26T06:33:43.671Z,23.24
2018-07-26T06:34:48.462Z,23.16
2018-07-26T06:35:54.414Z,23.17
2018-07-26T06:36:59.132Z,23.17
2018-07-26T06:38:07.444Z,23.21
2018-07-26T06:39:14.616Z,23.28
2018-07-26T06:40:20.333Z,23.29
2018-07-26T06:41:25.197Z,23.35
2018-07-26T06:42:30.405Z,23.44
2018-07-26T06:43:35.272Z,23.52
2018-07-26T06:44:40.945Z,23.53
2018-07-26T06:45:45.821Z,23.51
2018-07-26T06:46:50.675Z,23.51
2018-07-26T06:47:56.256Z,23.63
2018-07-26T06:49:02.369Z,23.74
2018-07-26T06:50:10.904Z,23.89
2018-07-26T06:51:15.796Z,23.97
2018-07-26T06:52:20.701Z,24.01
2018-07-26T06:53:28.563Z,24.03
2018-07-26T06:54:33.551Z,24.09
2018-07-26T06:55:38.760Z,24.18
2018-07-26T06:56:44.220Z,24.32
2018-07-26T06:57:49.118Z,24.45
2018-07-26T06:58:55.465Z,24.60
2018-07-26T07:00:01.168Z,24.72
2018-07-26T07:01:06.562Z,24.79
2018-07-26T07:02:12.740Z,24.88
2018-07-26T07:03:18.732Z,24.98
2018-07-26T07:04:25.137Z,25.10
2018-07-26T07:05:31.526Z,25.22
2018-07-26T07:06:36.896Z,25.30
2018-07-26T07:07:42.356Z,25.37
2018-07-26T07:08:47.490Z,25.44
2018-07-26T07:09:52.317Z,25.51
2018-07-26T07:10:57.292Z,25.51
2018-07-26T07:12:08.408Z,25.57
2018-07-26T07:13:13.186Z,25.70
2018-07-26T07:14:18.112Z,25.76
2018-07-26T07:15:23.397Z,25.84
2018-07-26T07:16:32.526Z,25.93
2018-07-26T07:17:39.461Z,26.07
2018-07-26T07:18:44.483Z,26.09
2018-07-26T07:19:50.743Z,26.06
2018-07-26T07:20:55.678Z,26.08
2018-07-26T07:22:01.009Z,26.12
2018-07-26T07:23:06.227Z,26.27
2018-07-26T07:24:13.751Z,26.42
2018-07-26T07:25:19.457Z,26.47
2018-07-26T07:26:24.344Z,26.54
2018-07-26T07:27:29.234Z,26.56
2018-07-26T07:28:36.721Z,26.61
2018-07-26T07:29:42.223Z,26.76
2018-07-26T07:30:47.526Z,26.85
2018-07-26T07:31:52.399Z,26.89
2018-07-26T07:32:57.332Z,26.94
2018-07-26T07:34:02.832Z,27.07
2018-07-26T07:35:08.263Z,27.14
2018-07-26T07:36:13.837Z,27.16
2018-07-26T07:37:19.366Z,27.15
2018-07-26T07:38:24.217Z,27.12
2018-07-26T07:39:29.638Z,27.22
2018-07-26T07:40:35.278Z,27.38
2018-07-26T07:41:41.900Z,27.45
2018-07-26T07:42:48.768Z,27.50
2018-07-26T07:43:55.647Z,27.56
2018-07-26T07:45:03.421Z,27.73
2018-07-26T07:46:08.722Z,27.79
2018-07-26T07:47:13.763Z,27.79
2018-07-26T07:48:19.012Z,28.01
2018-07-26T07:49:23.732Z,28.11
2018-07-26T07:50:28.487Z,28.19
2018-07-26T07:51:33.694Z,28.19
2018-07-26T07:52:39.449Z,28.28
2018-07-26T07:53:44.546Z,28.47
2018-07-26T07:54:50.160Z,28.45
2018-07-26T07:55:55.484Z,28.42
2018-07-26T07:57:00.343Z,28.51
2018-07-26T07:58:05.127Z,28.54
2018-07-26T07:59:10.677Z,28.42
2018-07-26T08:00:16.451Z,28.34
2018-07-26T08:01:21.183Z,28.23
2018-07-26T08:02:27.250Z,28.35
2018-07-26T08:03:32.039Z,28.53
2018-07-26T08:04:36.727Z,28.62
2018-07-26T08:05:41.490Z,28.79
2018-07-26T08:06:47.439Z,28.66
2018-07-26T08:07:52.217Z,28.71
2018-07-26T08:09:04.426Z,28.79
2018-07-26T08:10:10.857Z,28.87
2018-07-26T08:11:16.318Z,28.94
2018-07-26T08:12:25.546Z,29.00
2018-07-26T08:13:31.449Z,28.92
2018-07-26T08:14:36.248Z,28.82
2018-07-26T08:15:41.759Z,28.92
2018-07-26T08:16:47.675Z,28.89
2018-07-26T08:17:52.798Z,28.76
2018-07-26T08:18:59.632Z,28.76
2018-07-26T08:20:04.632Z,28.77
2018-07-26T08:21:09.400Z,28.86
2018-07-26T08:22:15.718Z,28.88
2018-07-26T08:23:25.631Z,28.87
2018-07-26T08:24:30.388Z,28.92
2018-07-26T08:25:35.435Z,29.02
2018-07-26T08:26:41.683Z,29.11
2018-07-26T08:27:49.112Z,29.27
2018-07-26T08:28:57.633Z,29.22
2018-07-26T08:30:07.624Z,29.31
2018-07-26T08:31:13.719Z,29.35
2018-07-26T08:32:18.594Z,29.35
2018-07-26T08:33:23.480Z,29.48
2018-07-26T08:34:31.648Z,29.66
2018-07-26T08:35:36.572Z,29.65
2018-07-26T08:36:41.339Z,29.41
2018-07-26T08:37:46.486Z,29.30
2018-07-26T08:38:51.206Z,29.28
2018-07-26T08:39:56.048Z,29.33
2018-07-26T08:41:01.326Z,29.40
2018-07-26T08:42:06.137Z,29.48
2018-07-26T08:43:10.989Z,29.52
2018-07-26T08:44:16.443Z,29.53
2018-07-26T08:45:23.241Z,29.55
2018-07-26T08:46:27.998Z,29.49
2018-07-26T08:47:35.719Z,29.48
2018-07-26T08:48:40.466Z,29.46
2018-07-26T08:49:45.217Z,29.40
2018-07-26T08:50:50.359Z,29.51
2018-07-26T08:51:55.280Z,29.57
2018-07-26T08:53:00.394Z,29.83
2018-07-26T08:54:08.260Z,29.73
2018-07-26T08:55:13.778Z,29.67
2018-07-26T08:56:21.772Z,29.84
2018-07-26T08:57:27.663Z,30.02
2018-07-26T08:58:33.609Z,29.84
2018-07-26T08:59:38.364Z,30.04
2018-07-26T09:00:43.684Z,29.98
2018-07-26T09:01:48.508Z,29.95
2018-07-26T09:02:53.276Z,29.83
2018-07-26T09:03:58.577Z,29.91
2018-07-26T09:05:03.323Z,30.05
2018-07-26T09:06:11.529Z,30.20
2018-07-26T09:07:17.288Z,30.29
2018-07-26T09:08:22.065Z,30.38
2018-07-26T09:09:26.859Z,30.39
2018-07-26T09:10:33.024Z,30.48
2018-07-26T09:11:40.987Z,30.49
2018-07-26T09:12:45.826Z,30.60
2018-07-26T09:13:51.174Z,30.68
2018-07-26T09:14:56.074Z,30.77
2018-07-26T09:16:04.427Z,30.90
2018-07-26T09:17:09.587Z,31.01
2018-07-26T09:18:14.322Z,30.94
2018-07-26T09:19:19.079Z,30.92
2018-07-26T09:20:24.998Z,30.97
2018-07-26T09:21:30.883Z,31.06
2018-07-26T09:23:51.613Z,31.02
2018-07-26T09:25:03.662Z,30.99
2018-07-26T09:26:08.799Z,30.97
2018-07-26T09:27:14.531Z,30.82
2018-07-26T09:28:21.060Z,30.76
2018-07-26T09:29:26.570Z,30.96
2018-07-26T09:30:31.478Z,30.93
2018-07-26T09:31:37.246Z,30.88
2018-07-26T09:32:42.800Z,30.89
2018-07-26T09:33:48.884Z,31.04
2018-07-26T09:34:54.599Z,31.06
2018-07-26T09:35:59.807Z,30.86
2018-07-26T09:37:04.725Z,30.75
2018-07-26T09:38:09.824Z,30.95
2018-07-26T09:39:16.060Z,31.17
2018-07-26T09:40:21.207Z,31.31
2018-07-26T09:41:27.726Z,31.19
2018-07-26T09:42:36.060Z,30.97
2018-07-26T09:43:42.552Z,31.12
2018-07-26T09:44:48.282Z,31.17
2018-07-26T09:45:53.173Z,31.30
2018-07-26T09:46:59.778Z,31.46
2018-07-26T09:48:04.733Z,31.59
2018-07-26T10:05:53.596Z,32.06
2018-07-26T10:06:59.913Z,32.02
2018-07-26T10:08:05.491Z,32.13
2018-07-26T10:09:12.913Z,32.03
2018-07-26T10:10:21.518Z,32.10
2018-07-26T10:11:28.483Z,31.89
2018-07-26T10:12:35.007Z,31.80
2018-07-26T10:13:55.445Z,31.89
2018-07-26T10:15:02.509Z,32.04
2018-07-26T10:16:08.152Z,32.19
2018-07-26T10:17:15.080Z,32.07
2018-07-26T10:18:24.323Z,32.19
2018-07-26T10:19:31.926Z,32.41
2018-07-26T10:20:37.682Z,32.55
2018-07-26T10:21:46.340Z,32.74
2018-07-26T10:22:52.743Z,32.68
2018-07-26T10:24:02.776Z,32.61
2018-07-26T10:25:07.991Z,32.30
2018-07-26T10:26:13.812Z,32.21
2018-07-26T10:27:19.308Z,32.28
2018-07-26T10:28:25.134Z,32.62
2018-07-26T10:29:33.774Z,32.83
2018-07-26T10:30:39.888Z,32.86
2018-07-26T10:31:46.429Z,32.82
2018-07-26T10:32:51.632Z,32.50
2018-07-26T10:33:57.136Z,32.24
2018-07-26T10:35:03.056Z,32.40
2018-07-26T10:36:08.825Z,32.63
2018-07-26T10:37:18.297Z,32.63
2018-07-26T10:38:24.455Z,32.25
2018-07-26T10:39:29.341Z,32.04
2018-07-26T10:40:35.246Z,32.02
2018-07-26T10:41:41.276Z,31.97
2018-07-26T10:42:46.337Z,32.00
2018-07-26T10:43:52.578Z,32.14
2018-07-26T10:44:57.597Z,32.27
2018-07-26T10:46:02.656Z,32.46
2018-07-26T10:47:10.077Z,32.07
2018-07-26T10:48:15.022Z,31.93
2018-07-26T10:49:19.884Z,32.04
2018-07-26T10:50:25.137Z,32.26
2018-07-26T10:52:43.198Z,32.83
2018-07-26T10:53:48.495Z,33.06
2018-07-26T10:54:54.295Z,33.23
2018-07-26T10:56:01.091Z,33.39
2018-07-26T10:57:08.471Z,33.38
2018-07-26T10:58:13.386Z,33.46
2018-07-26T10:59:20.474Z,33.49
2018-07-26T11:00:31.604Z,33.51
2018-07-26T11:01:38.659Z,33.65
2018-07-26T11:02:45.360Z,33.77
2018-07-26T11:03:50.658Z,33.96
2018-07-26T11:04:56.558Z,33.95
2018-07-26T11:06:01.436Z,34.02
2018-07-26T11:07:12.575Z,34.12
2018-07-26T11:08:19.616Z,34.29
2018-07-26T11:09:25.452Z,34.31
2018-07-26T11:10:31.165Z,34.16
2018-07-26T11:11:37.732Z,33.86
2018-07-26T11:12:44.369Z,33.33
2018-07-26T11:13:50.103Z,33.19
2018-07-26T11:14:57.157Z,33.38
2018-07-26T11:16:05.867Z,33.54
2018-07-26T11:17:16.556Z,33.10
2018-07-26T11:18:22.349Z,32.97
2018-07-26T11:19:27.289Z,32.95
2018-07-26T11:20:32.697Z,33.08
2018-07-26T11:21:39.957Z,33.55
2018-07-26T11:22:46.595Z,33.89
2018-07-26T11:23:52.900Z,34.09
2018-07-26T11:24:59.990Z,34.27
2018-07-26T11:26:08.663Z,34.46
2018-07-26T11:27:13.649Z,34.74
2018-07-26T11:28:19.344Z,34.88
2018-07-26T11:29:25.845Z,34.97
2018-07-26T11:30:31.275Z,34.44
2018-07-26T11:31:38.577Z,33.60
2018-07-26T11:32:44.389Z,33.51
2018-07-26T11:33:50.186Z,33.21
2018-07-26T11:34:55.681Z,33.23
2018-07-26T11:36:00.949Z,33.41
2018-07-26T11:37:06.428Z,33.69
2018-07-26T11:38:11.259Z,33.77
2018-07-26T11:39:16.191Z,34.15
2018-07-26T11:40:21.228Z,34.60
2018-07-26T11:41:27.590Z,34.83
2018-07-26T11:42:32.841Z,35.14
2018-07-26T11:43:40.465Z,34.99
2018-07-26T11:44:45.360Z,34.72
2018-07-26T11:45:51.991Z,34.14
2018-07-26T11:46:58.234Z,33.86
2018-07-26T11:48:04.257Z,33.96
2018-07-26T11:49:13.031Z,34.06
2018-07-26T11:50:20.684Z,34.10
2018-07-26T11:51:29.810Z,34.42
2018-07-26T11:52:35.596Z,34.44
2018-07-26T11:53:45.231Z,34.32
2018-07-26T11:54:50.780Z,35.15
2018-07-26T11:55:55.724Z,35.76
2018-07-26T11:57:00.601Z,36.02
2018-07-26T11:58:05.503Z,36.08
2018-07-26T11:59:10.675Z,35.24
2018-07-26T12:00:16.428Z,34.75
2018-07-26T12:01:21.719Z,34.68
2018-07-26T12:02:28.776Z,34.55
2018-07-26T12:03:36.930Z,34.40
2018-07-26T12:04:46.317Z,34.25
2018-07-26T12:05:55.958Z,34.33
2018-07-26T12:07:03.670Z,34.36
2018-07-26T12:08:12.477Z,34.40
2018-07-26T12:09:19.272Z,34.42
2018-07-26T12:10:24.772Z,33.95
2018-07-26T12:11:29.659Z,33.40
2018-07-26T12:12:34.583Z,33.92
2018-07-26T12:13:39.482Z,34.43
2018-07-26T12:14:46.935Z,34.42
2018-07-26T12:15:52.829Z,34.29
2018-07-26T12:17:05.859Z,34.91
2018-07-26T12:18:11.332Z,35.66
2018-07-26T12:19:16.708Z,34.86
2018-07-26T12:20:24.536Z,34.95
2018-07-26T12:21:29.767Z,34.83
2018-07-26T12:22:38.402Z,34.37
2018-07-26T12:23:45.417Z,33.99
2018-07-26T12:24:51.878Z,33.91
2018-07-26T12:25:59.466Z,33.96
2018-07-26T12:27:06.533Z,34.08
2018-07-26T12:28:11.552Z,34.36
2018-07-26T12:29:23.873Z,34.95
2018-07-26T12:30:32.706Z,34.39
2018-07-26T12:31:38.612Z,34.29
2018-07-26T12:32:44.340Z,34.51
2018-07-26T12:33:50.739Z,34.50
2018-07-26T12:34:55.611Z,34.29
2018-07-26T12:36:02.680Z,34.94
2018-07-26T12:37:07.556Z,35.62
2018-07-26T12:38:15.350Z,35.29
2018-07-26T12:39:20.974Z,35.52
2018-07-26T12:40:26.215Z,35.29
2018-07-26T12:41:32.578Z,35.66
2018-07-26T12:42:37.527Z,36.29
2018-07-26T12:43:42.511Z,36.86
2018-07-26T12:44:47.446Z,37.15
2018-07-26T12:45:54.136Z,37.51
2018-07-26T12:46:59.867Z,37.48
2018-07-26T12:48:05.668Z,36.58
2018-07-26T12:49:10.645Z,36.55
2018-07-26T12:50:17.209Z,36.80
2018-07-26T12:51:23.239Z,37.34
2018-07-26T12:52:29.905Z,36.59
2018-07-26T12:53:39.087Z,36.02
2018-07-26T12:54:44.061Z,36.05
2018-07-26T12:55:49.953Z,36.05
2018-07-26T12:56:54.798Z,36.37
2018-07-26T12:58:07.368Z,36.91
2018-07-26T12:59:12.250Z,37.74
2018-07-26T13:00:17.874Z,38.11
2018-07-26T13:01:30.111Z,38.28
2018-07-26T13:02:36.173Z,38.00
2018-07-26T13:03:41.042Z,37.73
2018-07-26T13:04:46.844Z,37.09
2018-07-26T13:05:51.701Z,36.56
2018-07-26T13:06:57.951Z,35.93
2018-07-26T13:08:02.808Z,35.18
2018-07-26T13:09:09.226Z,35.05
2018-07-26T13:10:14.808Z,34.87
2018-07-26T13:11:19.684Z,34.83
2018-07-26T13:12:24.545Z,34.87
2018-07-26T13:13:30.144Z,34.50
2018-07-26T13:14:35.096Z,34.35
2018-07-26T13:15:39.968Z,34.57
2018-07-26T13:16:46.385Z,34.52
2018-07-26T13:17:52.416Z,34.15
2018-07-26T13:18:57.769Z,33.89
2018-07-26T13:20:06.890Z,34.34
2018-07-26T13:21:11.965Z,35.34
2018-07-26T13:22:19.662Z,36.10
2018-07-26T13:23:24.656Z,35.93
2018-07-26T13:24:30.117Z,36.05
2018-07-26T13:25:38.249Z,36.29
2018-07-26T13:26:43.621Z,35.66
2018-07-26T13:27:48.377Z,35.36
2018-07-26T13:28:54.097Z,35.51
2018-07-26T13:29:58.961Z,35.62
2018-07-26T13:31:04.858Z,35.39
2018-07-26T13:32:11.016Z,35.20
2018-07-26T13:33:16.723Z,35.16
2018-07-26T13:34:22.190Z,35.84
2018-07-26T13:35:27.870Z,36.57
2018-07-26T13:36:33.779Z,37.26
2018-07-26T13:37:39.268Z,38.03
2018-07-26T13:38:46.001Z,38.66
2018-07-26T13:39:51.208Z,37.83
2018-07-26T13:40:56.211Z,37.54
2018-07-26T13:42:01.093Z,37.53
2018-07-26T13:43:06.423Z,37.87
2018-07-26T13:44:11.918Z,37.52
2018-07-26T13:45:17.441Z,37.13
2018-07-26T13:46:23.887Z,37.31
2018-07-26T13:47:29.758Z,37.46
2018-07-26T13:48:34.628Z,36.60
2018-07-26T13:49:39.511Z,35.54
2018-07-26T13:50:44.439Z,35.70
2018-07-26T13:51:49.363Z,35.82
2018-07-26T13:52:55.554Z,35.57
2018-07-26T13:54:00.886Z,34.96
2018-07-26T13:55:06.657Z,34.95
2018-07-26T13:56:11.553Z,35.05
2018-07-26T13:57:16.522Z,35.30
2018-07-26T13:58:21.619Z,35.04
2018-07-26T13:59:27.863Z,35.71
2018-07-26T14:00:34.563Z,36.00
2018-07-26T14:01:41.347Z,36.17
2018-07-26T14:02:46.541Z,36.17
2018-07-26T14:03:53.375Z,35.54
2018-07-26T14:04:59.507Z,36.28
2018-07-26T14:06:37.419Z,36.46
2018-07-26T14:07:43.129Z,36.02
2018-07-26T14:08:49.842Z,36.02
2018-07-26T14:09:55.293Z,36.00
2018-07-26T14:11:00.128Z,35.65
2018-07-26T14:12:05.683Z,36.24
2018-07-26T14:13:10.882Z,37.21
2018-07-26T14:14:18.390Z,36.17
2018-07-26T14:15:23.462Z,36.44
2018-07-26T14:16:29.460Z,37.06
2018-07-26T14:17:34.304Z,36.84
2018-07-26T14:18:40.572Z,37.01
2018-07-26T14:19:46.363Z,37.26
2018-07-26T14:20:51.461Z,36.91
2018-07-26T14:21:56.278Z,36.33
2018-07-26T14:23:04.182Z,35.92
2018-07-26T14:24:15.343Z,34.77
2018-07-26T14:25:22.719Z,35.54
2018-07-26T14:26:27.796Z,35.69
2018-07-26T14:27:32.547Z,35.05
2018-07-26T14:28:38.143Z,34.10
2018-07-26T14:29:46.277Z,34.12
2018-07-26T14:30:54.939Z,34.21
2018-07-26T14:32:02.186Z,34.00
2018-07-26T14:51:35.706Z,37.17
2018-07-26T14:52:43.575Z,36.87
2018-07-26T14:53:50.548Z,37.04
2018-07-26T14:54:56.594Z,36.47
2018-07-26T14:56:02.240Z,36.09
2018-07-26T20:06:39.075Z,28.29
2018-07-26T20:07:43.939Z,28.28
2018-07-26T20:08:49.348Z,28.25